sensor_id;sensor_type;location;lat;lon;timestamp;P1;durP1;ratioP1;P2;durP2;ratioP2
17197;SDS011;8715;51.010;6.812;2022-12-29T00:01:15;547.95;;;527.50;;
17197;SDS011;8715;51.010;6.812;2022-12-29T00:03:41;542.13;;;521.45;;
17197;SDS011;8715;51.010;6.812;2022-12-29T00:06:06;544.60;;;524.00;;
17197;SDS011;8715;51.010;6.812;2022-12-29T00:08:32;555.25;;;533.72;;
17197;SDS011;8715;51.010;6.812;2022-12-29T00:11:07;561.42;;;539.78;;
17197;SDS011;8715;51.010;6.812;2022-12-29T00:13:33;558.30;;;536.63;;
17197;SDS011;8715;51.010;6.812;2022-12-29T00:16:17;553.40;;;532.40;;
17197;SDS011;8715;51.010;6.812;2022-12-29T00:18:43;555.50;;;534.43;;
17197;SDS011;8715;51.010;6.812;2022-12-29T00:21:11;547.88;;;526.97;;
17197;SDS011;8715;51.010;6.812;2022-12-29T00:23:59;533.35;;;512.90;;
17197;SDS011;8715;51.010;6.812;2022-12-29T00:26:43;549.78;;;528.97;;
17197;SDS011;8715;51.010;6.812;2022-12-29T00:29:27;535.83;;;515.22;;
17197;SDS011;8715;51.010;6.812;2022-12-29T00:32:11;551.20;;;530.45;;
17197;SDS011;8715;51.010;6.812;2022-12-29T00:34:55;543.67;;;522.70;;
17197;SDS011;8715;51.010;6.812;2022-12-29T00:37:37;559.95;;;538.25;;
17197;SDS011;8715;51.010;6.812;2022-12-29T00:40:24;573.40;;;551.40;;
17197;SDS011;8715;51.010;6.812;2022-12-29T00:43:09;550.08;;;528.72;;
17197;SDS011;8715;51.010;6.812;2022-12-29T00:45:53;571.17;;;549.03;;
17197;SDS011;8715;51.010;6.812;2022-12-29T00:48:18;573.17;;;551.23;;
17197;SDS011;8715;51.010;6.812;2022-12-29T00:51:02;548.83;;;527.83;;
17197;SDS011;8715;51.010;6.812;2022-12-29T00:53:27;560.90;;;539.20;;
17197;SDS011;8715;51.010;6.812;2022-12-29T00:55:52;582.93;;;560.50;;
17197;SDS011;8715;51.010;6.812;2022-12-29T00:58:18;545.83;;;524.67;;
17197;SDS011;8715;51.010;6.812;2022-12-29T01:00:44;572.67;;;550.77;;
17197;SDS011;8715;51.010;6.812;2022-12-29T01:03:09;563.38;;;541.92;;
17197;SDS011;8715;51.010;6.812;2022-12-29T01:05:37;571.10;;;549.27;;
17197;SDS011;8715;51.010;6.812;2022-12-29T01:08:03;571.88;;;549.40;;
17197;SDS011;8715;51.010;6.812;2022-12-29T01:10:29;577.85;;;555.83;;
17197;SDS011;8715;51.010;6.812;2022-12-29T01:12:54;576.60;;;554.30;;
17197;SDS011;8715;51.010;6.812;2022-12-29T01:15:19;570.05;;;548.70;;
17197;SDS011;8715;51.010;6.812;2022-12-29T01:17:46;570.35;;;548.53;;
17197;SDS011;8715;51.010;6.812;2022-12-29T01:20:11;560.20;;;538.25;;
17197;SDS011;8715;51.010;6.812;2022-12-29T01:22:37;551.90;;;530.72;;
17197;SDS011;8715;51.010;6.812;2022-12-29T01:25:02;576.60;;;554.33;;
17197;SDS011;8715;51.010;6.812;2022-12-29T01:27:28;583.13;;;560.25;;
17197;SDS011;8715;51.010;6.812;2022-12-29T01:29:54;554.92;;;533.67;;
17197;SDS011;8715;51.010;6.812;2022-12-29T01:32:19;569.40;;;547.53;;
17197;SDS011;8715;51.010;6.812;2022-12-29T01:34:44;582.67;;;560.47;;
17197;SDS011;8715;51.010;6.812;2022-12-29T01:37:10;570.65;;;549.08;;
17197;SDS011;8715;51.010;6.812;2022-12-29T01:39:36;573.08;;;550.45;;
17197;SDS011;8715;51.010;6.812;2022-12-29T01:42:01;588.78;;;566.50;;
17197;SDS011;8715;51.010;6.812;2022-12-29T01:47:16;558.90;;;537.45;;
17197;SDS011;8715;51.010;6.812;2022-12-29T01:49:46;566.33;;;544.70;;
17197;SDS011;8715;51.010;6.812;2022-12-29T01:52:11;588.93;;;566.50;;
17197;SDS011;8715;51.010;6.812;2022-12-29T01:54:43;589.45;;;566.53;;
17197;SDS011;8715;51.010;6.812;2022-12-29T01:57:15;574.03;;;551.67;;
17197;SDS011;8715;51.010;6.812;2022-12-29T01:59:43;592.58;;;570.00;;
17197;SDS011;8715;51.010;6.812;2022-12-29T02:02:11;584.70;;;562.45;;
17197;SDS011;8715;51.010;6.812;2022-12-29T02:04:39;596.72;;;573.45;;
17197;SDS011;8715;51.010;6.812;2022-12-29T02:07:07;583.40;;;560.83;;
17197;SDS011;8715;51.010;6.812;2022-12-29T02:09:35;587.58;;;564.70;;
17197;SDS011;8715;51.010;6.812;2022-12-29T02:12:00;576.53;;;554.20;;
17197;SDS011;8715;51.010;6.812;2022-12-29T02:14:26;586.20;;;563.58;;
17197;SDS011;8715;51.010;6.812;2022-12-29T02:36:43;582.50;;;560.55;;
17197;SDS011;8715;51.010;6.812;2022-12-29T02:45:05;581.25;;;558.95;;
17197;SDS011;8715;51.010;6.812;2022-12-29T02:47:36;584.85;;;561.85;;
17197;SDS011;8715;51.010;6.812;2022-12-29T02:50:27;589.33;;;565.92;;
17197;SDS011;8715;51.010;6.812;2022-12-29T02:53:00;561.17;;;539.35;;
17197;SDS011;8715;51.010;6.812;2022-12-29T02:55:27;598.90;;;575.95;;
17197;SDS011;8715;51.010;6.812;2022-12-29T03:00:33;590.08;;;567.35;;
17197;SDS011;8715;51.010;6.812;2022-12-29T03:03:15;609.55;;;585.83;;
17197;SDS011;8715;51.010;6.812;2022-12-29T03:11:12;584.80;;;562.28;;
17197;SDS011;8715;51.010;6.812;2022-12-29T03:17:15;588.85;;;566.17;;
17197;SDS011;8715;51.010;6.812;2022-12-29T03:19:47;580.90;;;558.58;;
17197;SDS011;8715;51.010;6.812;2022-12-29T03:22:32;584.60;;;562.15;;
17197;SDS011;8715;51.010;6.812;2022-12-29T03:25:03;590.45;;;567.78;;
17197;SDS011;8715;51.010;6.812;2022-12-29T03:27:36;597.88;;;574.08;;
17197;SDS011;8715;51.010;6.812;2022-12-29T03:30:05;577.40;;;555.38;;
17197;SDS011;8715;51.010;6.812;2022-12-29T03:32:33;575.30;;;553.20;;
17197;SDS011;8715;51.010;6.812;2022-12-29T03:35:01;572.40;;;550.63;;
17197;SDS011;8715;51.010;6.812;2022-12-29T03:37:29;585.58;;;562.05;;
17197;SDS011;8715;51.010;6.812;2022-12-29T03:40:05;592.13;;;569.42;;
17197;SDS011;8715;51.010;6.812;2022-12-29T03:42:32;591.65;;;568.92;;
17197;SDS011;8715;51.010;6.812;2022-12-29T03:44:59;590.97;;;567.97;;
17197;SDS011;8715;51.010;6.812;2022-12-29T03:47:24;584.05;;;560.20;;
17197;SDS011;8715;51.010;6.812;2022-12-29T03:49:50;569.20;;;547.30;;
17197;SDS011;8715;51.010;6.812;2022-12-29T03:52:16;583.65;;;561.75;;
17197;SDS011;8715;51.010;6.812;2022-12-29T03:54:42;578.65;;;556.85;;
17197;SDS011;8715;51.010;6.812;2022-12-29T03:57:08;573.78;;;551.47;;
17197;SDS011;8715;51.010;6.812;2022-12-29T03:59:34;583.22;;;560.50;;
17197;SDS011;8715;51.010;6.812;2022-12-29T04:01:59;584.95;;;562.50;;
17197;SDS011;8715;51.010;6.812;2022-12-29T04:04:24;587.27;;;564.73;;
17197;SDS011;8715;51.010;6.812;2022-12-29T04:06:50;585.63;;;563.20;;
17197;SDS011;8715;51.010;6.812;2022-12-29T04:09:15;571.47;;;549.65;;
17197;SDS011;8715;51.010;6.812;2022-12-29T04:11:40;576.63;;;554.73;;
17197;SDS011;8715;51.010;6.812;2022-12-29T04:14:06;567.27;;;545.70;;
17197;SDS011;8715;51.010;6.812;2022-12-29T04:16:31;574.97;;;552.90;;
17197;SDS011;8715;51.010;6.812;2022-12-29T04:19:00;576.58;;;554.55;;
17197;SDS011;8715;51.010;6.812;2022-12-29T04:21:27;589.35;;;566.50;;
17197;SDS011;8715;51.010;6.812;2022-12-29T04:23:53;554.67;;;533.22;;
17197;SDS011;8715;51.010;6.812;2022-12-29T04:26:18;575.42;;;553.60;;
17197;SDS011;8715;51.010;6.812;2022-12-29T04:28:43;573.80;;;551.83;;
17197;SDS011;8715;51.010;6.812;2022-12-29T04:31:09;561.50;;;540.07;;
17197;SDS011;8715;51.010;6.812;2022-12-29T04:33:34;577.55;;;555.58;;
17197;SDS011;8715;51.010;6.812;2022-12-29T04:36:01;572.83;;;550.83;;
17197;SDS011;8715;51.010;6.812;2022-12-29T04:38:26;568.45;;;546.90;;
17197;SDS011;8715;51.010;6.812;2022-12-29T04:40:52;583.17;;;560.47;;
17197;SDS011;8715;51.010;6.812;2022-12-29T04:43:17;578.20;;;556.28;;
17197;SDS011;8715;51.010;6.812;2022-12-29T04:48:12;571.60;;;549.80;;
17197;SDS011;8715;51.010;6.812;2022-12-29T04:50:38;587.65;;;565.45;;
17197;SDS011;8715;51.010;6.812;2022-12-29T04:53:04;597.85;;;574.17;;
17197;SDS011;8715;51.010;6.812;2022-12-29T04:55:29;593.30;;;570.47;;
17197;SDS011;8715;51.010;6.812;2022-12-29T04:57:55;590.70;;;568.55;;
17197;SDS011;8715;51.010;6.812;2022-12-29T05:00:20;591.80;;;569.20;;
17197;SDS011;8715;51.010;6.812;2022-12-29T05:02:45;575.92;;;554.08;;
17197;SDS011;8715;51.010;6.812;2022-12-29T05:05:11;576.27;;;554.47;;
17197;SDS011;8715;51.010;6.812;2022-12-29T05:07:36;581.65;;;559.65;;
17197;SDS011;8715;51.010;6.812;2022-12-29T05:10:04;582.88;;;560.55;;
17197;SDS011;8715;51.010;6.812;2022-12-29T05:12:30;585.67;;;563.05;;
17197;SDS011;8715;51.010;6.812;2022-12-29T05:14:56;590.00;;;567.78;;
17197;SDS011;8715;51.010;6.812;2022-12-29T05:17:22;597.42;;;573.92;;
17197;SDS011;8715;51.010;6.812;2022-12-29T05:19:47;592.07;;;569.70;;
17197;SDS011;8715;51.010;6.812;2022-12-29T05:22:12;588.30;;;565.73;;
17197;SDS011;8715;51.010;6.812;2022-12-29T05:24:37;591.30;;;568.92;;
17197;SDS011;8715;51.010;6.812;2022-12-29T05:27:03;596.47;;;573.80;;
17197;SDS011;8715;51.010;6.812;2022-12-29T05:29:28;608.25;;;584.60;;
17197;SDS011;8715;51.010;6.812;2022-12-29T05:31:53;618.93;;;594.83;;
17197;SDS011;8715;51.010;6.812;2022-12-29T05:34:19;611.07;;;588.07;;
17197;SDS011;8715;51.010;6.812;2022-12-29T05:36:47;602.87;;;579.67;;
17197;SDS011;8715;51.010;6.812;2022-12-29T05:39:13;615.05;;;591.38;;
17197;SDS011;8715;51.010;6.812;2022-12-29T05:41:38;614.80;;;591.43;;
17197;SDS011;8715;51.010;6.812;2022-12-29T05:44:03;612.93;;;589.03;;
17197;SDS011;8715;51.010;6.812;2022-12-29T05:46:29;602.90;;;580.13;;
17197;SDS011;8715;51.010;6.812;2022-12-29T05:48:54;614.20;;;590.40;;
17197;SDS011;8715;51.010;6.812;2022-12-29T05:51:25;613.00;;;589.45;;
17197;SDS011;8715;51.010;6.812;2022-12-29T05:53:51;602.30;;;579.33;;
17197;SDS011;8715;51.010;6.812;2022-12-29T05:56:16;612.53;;;589.10;;
17197;SDS011;8715;51.010;6.812;2022-12-29T05:58:42;589.08;;;565.88;;
17197;SDS011;8715;51.010;6.812;2022-12-29T06:01:14;594.95;;;572.38;;
17197;SDS011;8715;51.010;6.812;2022-12-29T06:03:40;604.55;;;581.38;;
17197;SDS011;8715;51.010;6.812;2022-12-29T06:06:05;598.13;;;575.13;;
17197;SDS011;8715;51.010;6.812;2022-12-29T06:08:31;615.13;;;591.08;;
17197;SDS011;8715;51.010;6.812;2022-12-29T06:10:56;605.70;;;582.97;;
17197;SDS011;8715;51.010;6.812;2022-12-29T06:13:21;610.92;;;587.67;;
17197;SDS011;8715;51.010;6.812;2022-12-29T06:15:50;603.03;;;580.00;;
17197;SDS011;8715;51.010;6.812;2022-12-29T06:18:15;604.75;;;581.90;;
17197;SDS011;8715;51.010;6.812;2022-12-29T06:20:47;607.47;;;584.55;;
17197;SDS011;8715;51.010;6.812;2022-12-29T06:23:12;620.20;;;596.53;;
17197;SDS011;8715;51.010;6.812;2022-12-29T06:25:38;615.28;;;591.60;;
17197;SDS011;8715;51.010;6.812;2022-12-29T06:28:04;603.45;;;580.45;;
17197;SDS011;8715;51.010;6.812;2022-12-29T06:30:30;616.60;;;592.95;;
17197;SDS011;8715;51.010;6.812;2022-12-29T06:32:55;606.28;;;583.10;;
17197;SDS011;8715;51.010;6.812;2022-12-29T06:35:21;610.67;;;587.27;;
17197;SDS011;8715;51.010;6.812;2022-12-29T06:37:47;609.92;;;585.75;;
17197;SDS011;8715;51.010;6.812;2022-12-29T06:40:13;615.58;;;591.97;;
17197;SDS011;8715;51.010;6.812;2022-12-29T06:42:38;608.27;;;585.17;;
17197;SDS011;8715;51.010;6.812;2022-12-29T06:45:04;619.87;;;595.17;;
17197;SDS011;8715;51.010;6.812;2022-12-29T06:47:30;612.42;;;588.15;;
17197;SDS011;8715;51.010;6.812;2022-12-29T06:49:55;606.47;;;583.23;;
17197;SDS011;8715;51.010;6.812;2022-12-29T06:52:21;618.72;;;594.85;;
17197;SDS011;8715;51.010;6.812;2022-12-29T06:54:46;617.15;;;593.63;;
17197;SDS011;8715;51.010;6.812;2022-12-29T06:57:11;618.73;;;595.37;;
17197;SDS011;8715;51.010;6.812;2022-12-29T06:59:36;596.17;;;572.80;;
17197;SDS011;8715;51.010;6.812;2022-12-29T07:02:02;603.73;;;580.13;;
17197;SDS011;8715;51.010;6.812;2022-12-29T07:04:28;603.33;;;580.15;;
17197;SDS011;8715;51.010;6.812;2022-12-29T07:06:54;608.97;;;585.47;;
17197;SDS011;8715;51.010;6.812;2022-12-29T07:09:19;614.53;;;590.73;;
17197;SDS011;8715;51.010;6.812;2022-12-29T07:11:47;607.10;;;583.90;;
17197;SDS011;8715;51.010;6.812;2022-12-29T07:14:13;600.20;;;576.88;;
17197;SDS011;8715;51.010;6.812;2022-12-29T07:16:38;602.33;;;579.03;;
17197;SDS011;8715;51.010;6.812;2022-12-29T07:19:04;613.63;;;589.60;;
17197;SDS011;8715;51.010;6.812;2022-12-29T07:21:29;602.13;;;578.63;;
17197;SDS011;8715;51.010;6.812;2022-12-29T07:23:55;605.90;;;582.58;;
17197;SDS011;8715;51.010;6.812;2022-12-29T07:26:20;606.65;;;583.35;;
17197;SDS011;8715;51.010;6.812;2022-12-29T07:28:46;612.17;;;587.83;;
17197;SDS011;8715;51.010;6.812;2022-12-29T07:31:14;594.22;;;571.33;;
17197;SDS011;8715;51.010;6.812;2022-12-29T07:33:41;613.90;;;590.28;;
17197;SDS011;8715;51.010;6.812;2022-12-29T07:36:08;623.97;;;599.70;;
17197;SDS011;8715;51.010;6.812;2022-12-29T07:38:33;621.83;;;597.78;;
17197;SDS011;8715;51.010;6.812;2022-12-29T07:40:59;614.97;;;590.73;;
17197;SDS011;8715;51.010;6.812;2022-12-29T07:43:24;617.70;;;594.20;;
17197;SDS011;8715;51.010;6.812;2022-12-29T07:45:49;611.85;;;587.92;;
17197;SDS011;8715;51.010;6.812;2022-12-29T07:48:15;613.30;;;589.50;;
17197;SDS011;8715;51.010;6.812;2022-12-29T07:50:40;608.83;;;585.23;;
17197;SDS011;8715;51.010;6.812;2022-12-29T07:53:05;607.60;;;583.57;;
17197;SDS011;8715;51.010;6.812;2022-12-29T07:55:31;622.03;;;597.37;;
17197;SDS011;8715;51.010;6.812;2022-12-29T07:57:56;625.38;;;601.47;;
17197;SDS011;8715;51.010;6.812;2022-12-29T08:00:22;617.08;;;592.70;;
17197;SDS011;8715;51.010;6.812;2022-12-29T08:02:47;608.67;;;585.33;;
17197;SDS011;8715;51.010;6.812;2022-12-29T08:05:13;611.75;;;588.50;;
17197;SDS011;8715;51.010;6.812;2022-12-29T08:07:38;610.22;;;586.40;;
17197;SDS011;8715;51.010;6.812;2022-12-29T08:10:03;616.08;;;592.17;;
17197;SDS011;8715;51.010;6.812;2022-12-29T08:12:29;625.58;;;601.95;;
17197;SDS011;8715;51.010;6.812;2022-12-29T08:14:55;617.72;;;593.70;;
17197;SDS011;8715;51.010;6.812;2022-12-29T08:17:20;617.60;;;593.58;;
17197;SDS011;8715;51.010;6.812;2022-12-29T08:19:45;607.60;;;583.57;;
17197;SDS011;8715;51.010;6.812;2022-12-29T08:22:12;602.73;;;579.30;;
17197;SDS011;8715;51.010;6.812;2022-12-29T08:24:38;620.58;;;596.58;;
17197;SDS011;8715;51.010;6.812;2022-12-29T08:27:04;609.92;;;586.30;;
17197;SDS011;8715;51.010;6.812;2022-12-29T08:29:29;607.57;;;584.03;;
17197;SDS011;8715;51.010;6.812;2022-12-29T08:31:54;612.00;;;588.43;;
17197;SDS011;8715;51.010;6.812;2022-12-29T08:34:20;603.73;;;580.40;;
17197;SDS011;8715;51.010;6.812;2022-12-29T08:36:45;613.78;;;589.95;;
17197;SDS011;8715;51.010;6.812;2022-12-29T08:39:11;605.75;;;582.33;;
17197;SDS011;8715;51.010;6.812;2022-12-29T08:41:36;611.40;;;587.63;;
17197;SDS011;8715;51.010;6.812;2022-12-29T08:44:01;598.83;;;575.83;;
17197;SDS011;8715;51.010;6.812;2022-12-29T08:46:27;614.25;;;590.47;;
17197;SDS011;8715;51.010;6.812;2022-12-29T08:48:52;608.70;;;584.80;;
17197;SDS011;8715;51.010;6.812;2022-12-29T08:51:18;595.22;;;572.47;;
17197;SDS011;8715;51.010;6.812;2022-12-29T08:53:43;602.73;;;579.90;;
17197;SDS011;8715;51.010;6.812;2022-12-29T08:56:09;603.03;;;579.47;;
17197;SDS011;8715;51.010;6.812;2022-12-29T08:58:36;620.97;;;596.88;;
17197;SDS011;8715;51.010;6.812;2022-12-29T09:01:01;605.47;;;582.42;;
17197;SDS011;8715;51.010;6.812;2022-12-29T09:03:27;616.15;;;592.10;;
17197;SDS011;8715;51.010;6.812;2022-12-29T09:05:52;625.85;;;601.50;;
17197;SDS011;8715;51.010;6.812;2022-12-29T09:08:18;612.42;;;588.78;;
17197;SDS011;8715;51.010;6.812;2022-12-29T09:10:44;597.28;;;574.40;;
17197;SDS011;8715;51.010;6.812;2022-12-29T09:13:10;626.30;;;602.25;;
17197;SDS011;8715;51.010;6.812;2022-12-29T09:15:36;618.58;;;594.97;;
17197;SDS011;8715;51.010;6.812;2022-12-29T09:18:01;638.30;;;613.63;;
17197;SDS011;8715;51.010;6.812;2022-12-29T09:20:28;628.45;;;604.17;;
17197;SDS011;8715;51.010;6.812;2022-12-29T09:22:53;631.03;;;606.40;;
17197;SDS011;8715;51.010;6.812;2022-12-29T09:25:18;626.13;;;602.17;;
17197;SDS011;8715;51.010;6.812;2022-12-29T09:27:44;618.70;;;594.90;;
17197;SDS011;8715;51.010;6.812;2022-12-29T09:30:11;627.67;;;603.10;;
17197;SDS011;8715;51.010;6.812;2022-12-29T09:32:37;624.05;;;600.10;;
17197;SDS011;8715;51.010;6.812;2022-12-29T09:35:02;622.93;;;598.57;;
17197;SDS011;8715;51.010;6.812;2022-12-29T09:37:28;624.60;;;600.25;;
17197;SDS011;8715;51.010;6.812;2022-12-29T09:39:54;649.83;;;624.50;;
17197;SDS011;8715;51.010;6.812;2022-12-29T09:42:22;665.33;;;639.03;;
17197;SDS011;8715;51.010;6.812;2022-12-29T09:47:17;643.63;;;618.20;;
17197;SDS011;8715;51.010;6.812;2022-12-29T09:49:44;654.60;;;628.88;;
17197;SDS011;8715;51.010;6.812;2022-12-29T09:52:21;649.75;;;624.33;;
17197;SDS011;8715;51.010;6.812;2022-12-29T09:55:13;639.35;;;614.65;;
17197;SDS011;8715;51.010;6.812;2022-12-29T09:57:41;636.20;;;611.53;;
17197;SDS011;8715;51.010;6.812;2022-12-29T10:08:03;639.88;;;614.83;;
17197;SDS011;8715;51.010;6.812;2022-12-29T10:10:38;649.17;;;623.53;;
17197;SDS011;8715;51.010;6.812;2022-12-29T10:23:59;739.80;;;708.63;;
17197;SDS011;8715;51.010;6.812;2022-12-29T10:26:28;740.72;;;708.90;;
17197;SDS011;8715;51.010;6.812;2022-12-29T10:28:57;754.97;;;721.67;;
17197;SDS011;8715;51.010;6.812;2022-12-29T10:31:35;756.83;;;723.78;;
17197;SDS011;8715;51.010;6.812;2022-12-29T10:34:06;766.03;;;732.03;;
17197;SDS011;8715;51.010;6.812;2022-12-29T10:36:41;765.15;;;731.47;;
17197;SDS011;8715;51.010;6.812;2022-12-29T10:39:16;767.70;;;733.55;;
17197;SDS011;8715;51.010;6.812;2022-12-29T10:41:45;767.13;;;733.22;;
17197;SDS011;8715;51.010;6.812;2022-12-29T10:44:14;725.55;;;695.03;;
17197;SDS011;8715;51.010;6.812;2022-12-29T10:46:42;723.35;;;693.13;;
17197;SDS011;8715;51.010;6.812;2022-12-29T10:49:13;726.10;;;695.53;;
17197;SDS011;8715;51.010;6.812;2022-12-29T10:51:41;725.28;;;694.45;;
17197;SDS011;8715;51.010;6.812;2022-12-29T10:54:27;732.97;;;702.05;;
17197;SDS011;8715;51.010;6.812;2022-12-29T10:57:00;727.45;;;697.25;;
17197;SDS011;8715;51.010;6.812;2022-12-29T11:05:06;722.67;;;691.92;;
17197;SDS011;8715;51.010;6.812;2022-12-29T11:07:40;724.28;;;694.17;;
17197;SDS011;8715;51.010;6.812;2022-12-29T11:10:29;740.07;;;708.43;;
17197;SDS011;8715;51.010;6.812;2022-12-29T11:13:00;739.95;;;707.95;;
17197;SDS011;8715;51.010;6.812;2022-12-29T11:15:28;752.50;;;719.83;;
17197;SDS011;8715;51.010;6.812;2022-12-29T11:18:03;752.30;;;719.58;;
17197;SDS011;8715;51.010;6.812;2022-12-29T11:23:03;741.45;;;709.83;;
17197;SDS011;8715;51.010;6.812;2022-12-29T11:25:29;750.75;;;717.88;;
17197;SDS011;8715;51.010;6.812;2022-12-29T11:27:59;753.90;;;720.55;;
17197;SDS011;8715;51.010;6.812;2022-12-29T11:30:27;742.03;;;709.50;;
17197;SDS011;8715;51.010;6.812;2022-12-29T11:32:56;708.72;;;679.25;;
17197;SDS011;8715;51.010;6.812;2022-12-29T11:35:37;702.20;;;673.50;;
17197;SDS011;8715;51.010;6.812;2022-12-29T11:38:04;701.95;;;672.95;;
17197;SDS011;8715;51.010;6.812;2022-12-29T11:40:30;712.22;;;682.65;;
17197;SDS011;8715;51.010;6.812;2022-12-29T11:42:58;705.53;;;676.55;;
17197;SDS011;8715;51.010;6.812;2022-12-29T11:45:29;696.05;;;667.65;;
17197;SDS011;8715;51.010;6.812;2022-12-29T11:50:28;686.95;;;658.38;;
17197;SDS011;8715;51.010;6.812;2022-12-29T11:52:58;695.13;;;666.80;;
17197;SDS011;8715;51.010;6.812;2022-12-29T11:55:26;699.28;;;671.05;;
17197;SDS011;8715;51.010;6.812;2022-12-29T11:57:52;692.92;;;664.92;;
17197;SDS011;8715;51.010;6.812;2022-12-29T12:00:20;721.38;;;691.47;;
17197;SDS011;8715;51.010;6.812;2022-12-29T12:03:20;713.88;;;684.83;;
17197;SDS011;8715;51.010;6.812;2022-12-29T12:05:41;705.58;;;676.70;;
17197;SDS011;8715;51.010;6.812;2022-12-29T12:08:43;713.47;;;684.13;;
17197;SDS011;8715;51.010;6.812;2022-12-29T12:11:14;716.85;;;687.05;;
17197;SDS011;8715;51.010;6.812;2022-12-29T12:13:55;714.80;;;685.47;;
17197;SDS011;8715;51.010;6.812;2022-12-29T12:16:28;719.95;;;690.17;;
17197;SDS011;8715;51.010;6.812;2022-12-29T12:19:01;702.47;;;673.15;;
17197;SDS011;8715;51.010;6.812;2022-12-29T12:21:40;709.72;;;680.65;;
17197;SDS011;8715;51.010;6.812;2022-12-29T12:24:22;706.00;;;676.47;;
17197;SDS011;8715;51.010;6.812;2022-12-29T12:32:33;708.15;;;679.17;;
17197;SDS011;8715;51.010;6.812;2022-12-29T12:35:11;709.22;;;680.42;;
17197;SDS011;8715;51.010;6.812;2022-12-29T12:40:41;701.85;;;672.80;;
17197;SDS011;8715;51.010;6.812;2022-12-29T12:43:20;696.08;;;668.03;;
17197;SDS011;8715;51.010;6.812;2022-12-29T12:51:44;690.72;;;662.90;;
17197;SDS011;8715;51.010;6.812;2022-12-29T12:59:30;690.38;;;662.30;;
17197;SDS011;8715;51.010;6.812;2022-12-29T13:02:19;685.25;;;657.50;;
17197;SDS011;8715;51.010;6.812;2022-12-29T13:04:59;675.67;;;648.72;;
17197;SDS011;8715;51.010;6.812;2022-12-29T13:07:40;697.53;;;667.72;;
17197;SDS011;8715;51.010;6.812;2022-12-29T13:18:29;686.90;;;659.13;;
17197;SDS011;8715;51.010;6.812;2022-12-29T13:21:02;691.40;;;663.08;;
17197;SDS011;8715;51.010;6.812;2022-12-29T13:23:50;699.75;;;671.08;;
17197;SDS011;8715;51.010;6.812;2022-12-29T13:26:25;694.20;;;665.45;;
17197;SDS011;8715;51.010;6.812;2022-12-29T13:29:12;683.78;;;655.85;;
17197;SDS011;8715;51.010;6.812;2022-12-29T13:32:25;678.13;;;651.05;;
17197;SDS011;8715;51.010;6.812;2022-12-29T13:37:17;686.50;;;657.65;;
17197;SDS011;8715;51.010;6.812;2022-12-29T13:39:48;686.50;;;658.72;;
17197;SDS011;8715;51.010;6.812;2022-12-29T13:42:17;673.15;;;645.95;;
17197;SDS011;8715;51.010;6.812;2022-12-29T13:44:48;672.20;;;645.13;;
17197;SDS011;8715;51.010;6.812;2022-12-29T13:50:04;677.10;;;649.70;;
17197;SDS011;8715;51.010;6.812;2022-12-29T13:55:20;667.95;;;641.45;;
17197;SDS011;8715;51.010;6.812;2022-12-29T14:00:19;685.55;;;657.88;;
17197;SDS011;8715;51.010;6.812;2022-12-29T14:08:14;659.43;;;632.77;;
17197;SDS011;8715;51.010;6.812;2022-12-29T14:10:50;659.10;;;633.10;;
17197;SDS011;8715;51.010;6.812;2022-12-29T14:13:17;662.30;;;635.78;;
17197;SDS011;8715;51.010;6.812;2022-12-29T14:15:45;671.50;;;644.55;;
17197;SDS011;8715;51.010;6.812;2022-12-29T14:18:18;682.58;;;655.20;;
17197;SDS011;8715;51.010;6.812;2022-12-29T14:20:49;679.85;;;652.67;;
17197;SDS011;8715;51.010;6.812;2022-12-29T14:28:34;684.00;;;656.05;;
17197;SDS011;8715;51.010;6.812;2022-12-29T14:31:02;668.28;;;641.38;;
17197;SDS011;8715;51.010;6.812;2022-12-29T14:33:29;679.83;;;652.22;;
17197;SDS011;8715;51.010;6.812;2022-12-29T14:35:57;675.40;;;647.92;;
17197;SDS011;8715;51.010;6.812;2022-12-29T14:38:48;671.05;;;644.22;;
17197;SDS011;8715;51.010;6.812;2022-12-29T14:41:56;666.85;;;640.33;;
17197;SDS011;8715;51.010;6.812;2022-12-29T14:55:28;671.15;;;644.50;;
17197;SDS011;8715;51.010;6.812;2022-12-29T14:57:39;674.78;;;647.88;;
17197;SDS011;8715;51.010;6.812;2022-12-29T15:02:47;672.92;;;645.72;;
17197;SDS011;8715;51.010;6.812;2022-12-29T15:08:22;643.58;;;618.13;;
17197;SDS011;8715;51.010;6.812;2022-12-29T15:10:53;672.60;;;645.70;;
17197;SDS011;8715;51.010;6.812;2022-12-29T15:13:22;665.00;;;637.92;;
17197;SDS011;8715;51.010;6.812;2022-12-29T15:15:50;677.70;;;650.50;;
17197;SDS011;8715;51.010;6.812;2022-12-29T15:18:28;679.60;;;651.63;;
17197;SDS011;8715;51.010;6.812;2022-12-29T15:20:58;688.35;;;660.05;;
17197;SDS011;8715;51.010;6.812;2022-12-29T15:23:28;667.85;;;641.47;;
17197;SDS011;8715;51.010;6.812;2022-12-29T15:26:07;672.05;;;645.10;;
17197;SDS011;8715;51.010;6.812;2022-12-29T15:28:43;666.72;;;639.75;;
17197;SDS011;8715;51.010;6.812;2022-12-29T15:31:20;657.38;;;630.90;;
17197;SDS011;8715;51.010;6.812;2022-12-29T15:33:48;672.42;;;645.13;;
17197;SDS011;8715;51.010;6.812;2022-12-29T15:36:21;673.92;;;646.65;;
17197;SDS011;8715;51.010;6.812;2022-12-29T15:38:49;665.03;;;637.80;;
17197;SDS011;8715;51.010;6.812;2022-12-29T15:41:23;667.15;;;639.80;;
17197;SDS011;8715;51.010;6.812;2022-12-29T15:43:53;662.67;;;635.85;;
17197;SDS011;8715;51.010;6.812;2022-12-29T15:46:27;657.58;;;630.72;;
17197;SDS011;8715;51.010;6.812;2022-12-29T15:48:55;659.17;;;632.63;;
17197;SDS011;8715;51.010;6.812;2022-12-29T15:51:30;662.72;;;636.42;;
17197;SDS011;8715;51.010;6.812;2022-12-29T15:54:01;655.17;;;628.28;;
17197;SDS011;8715;51.010;6.812;2022-12-29T15:56:30;661.00;;;634.35;;
17197;SDS011;8715;51.010;6.812;2022-12-29T15:58:56;643.53;;;617.80;;
17197;SDS011;8715;51.010;6.812;2022-12-29T16:01:34;638.88;;;613.75;;
17197;SDS011;8715;51.010;6.812;2022-12-29T16:04:09;627.17;;;602.40;;
17197;SDS011;8715;51.010;6.812;2022-12-29T16:06:36;620.40;;;595.72;;
17197;SDS011;8715;51.010;6.812;2022-12-29T16:09:04;635.53;;;609.45;;
17197;SDS011;8715;51.010;6.812;2022-12-29T16:11:40;631.13;;;605.67;;
17197;SDS011;8715;51.010;6.812;2022-12-29T16:14:21;622.17;;;597.60;;
17197;SDS011;8715;51.010;6.812;2022-12-29T16:16:49;621.67;;;597.47;;
17197;SDS011;8715;51.010;6.812;2022-12-29T16:19:18;626.70;;;601.95;;
17197;SDS011;8715;51.010;6.812;2022-12-29T16:21:46;590.47;;;566.85;;
17197;SDS011;8715;51.010;6.812;2022-12-29T16:24:13;622.80;;;597.97;;
17197;SDS011;8715;51.010;6.812;2022-12-29T16:26:45;606.85;;;583.33;;
17197;SDS011;8715;51.010;6.812;2022-12-29T16:29:12;631.55;;;606.60;;
17197;SDS011;8715;51.010;6.812;2022-12-29T16:31:54;627.17;;;602.00;;
17197;SDS011;8715;51.010;6.812;2022-12-29T16:37:00;620.25;;;595.88;;
17197;SDS011;8715;51.010;6.812;2022-12-29T16:41:56;623.55;;;599.30;;
17197;SDS011;8715;51.010;6.812;2022-12-29T16:44:31;563.35;;;540.63;;
17197;SDS011;8715;51.010;6.812;2022-12-29T16:46:58;612.30;;;588.13;;